createdAt,value
2019-05-13T00:00:48.185Z,103346.64
2019-05-13T00:01:50.767Z,103343.09
2019-05-13T00:02:54.412Z,103347.58
2019-05-13T00:03:57.203Z,103344.03
2019-05-13T00:04:59.414Z,103341.41
2019-05-13T00:06:03.960Z,103338.43
2019-05-13T00:07:05.852Z,103344.73
2019-05-13T00:08:08.507Z,103345.34
2019-05-13T00:09:10.758Z,103338.80
2019-05-13T00:10:14.790Z,103339.73
2019-05-13T00:11:17.121Z,103341.41
2019-05-13T00:12:19.698Z,103341.41
2019-05-13T00:13:23.738Z,103336.19
2019-05-13T00:14:26.174Z,103336.56
2019-05-13T00:15:28.393Z,103330.35
2019-05-13T00:16:30.977Z,103334.27
2019-05-13T00:17:33.851Z,103340.11
2019-05-13T00:18:36.491Z,103336.56
2019-05-13T00:19:38.762Z,103340.11
2019-05-13T00:20:44.112Z,103339.17
2019-05-13T00:21:45.207Z,103343.66
2019-05-13T00:22:47.785Z,103340.81
2019-05-13T00:23:49.998Z,103333.34
2019-05-13T00:24:54.242Z,103347.34
2019-05-13T00:25:56.536Z,103339.17
2019-05-13T00:26:59.184Z,103338.94
2019-05-13T00:28:03.768Z,103336.70
2019-05-13T00:29:07.329Z,103338.94
2019-05-13T00:30:09.555Z,103337.63
2019-05-13T00:31:13.786Z,103341.55
2019-05-13T00:32:16.138Z,103346.78
2019-05-13T00:33:18.775Z,103340.24
2019-05-13T00:34:20.996Z,103344.16
2019-05-13T00:35:23.623Z,103340.24
2019-05-13T00:36:25.824Z,103339.67
2019-05-13T00:37:28.517Z,103344.91
2019-05-13T00:38:30.717Z,103345.84
2019-05-13T00:39:33.762Z,103345.27
2019-05-13T00:40:36.117Z,103341.36
2019-05-13T00:41:38.702Z,103351.81
2019-05-13T00:42:40.921Z,103348.83
2019-05-13T00:43:44.426Z,103343.97
2019-05-13T00:44:46.862Z,103343.41
2019-05-13T00:45:49.435Z,103338.55
2019-05-13T00:46:53.762Z,103347.89
2019-05-13T00:47:55.890Z,103347.32
2019-05-13T00:48:58.100Z,103348.63
2019-05-13T00:50:00.706Z,103343.41
2019-05-13T00:51:03.788Z,103345.64
2019-05-13T00:52:06.578Z,103341.16
2019-05-13T00:53:08.820Z,103348.27
2019-05-13T00:54:13.262Z,103347.69
2019-05-13T00:55:15.302Z,103347.32
2019-05-13T00:56:17.882Z,103344.70
2019-05-13T00:57:20.192Z,103348.63
2019-05-13T00:58:24.189Z,103352.55
2019-05-13T00:59:26.627Z,103346.39
2019-05-13T01:00:29.221Z,103352.55
2019-05-13T01:01:33.423Z,103348.06
2019-05-13T01:02:35.646Z,103354.23
2019-05-13T01:03:37.858Z,103348.06
2019-05-13T01:04:40.431Z,103349.73
2019-05-13T01:05:44.565Z,103351.98
2019-05-13T01:06:46.865Z,103350.48
2019-05-13T01:07:49.091Z,103352.35
2019-05-13T01:08:53.585Z,103352.35
2019-05-13T01:09:55.534Z,103356.27
2019-05-13T01:10:58.115Z,103360.20
2019-05-13T01:12:00.327Z,103352.35
2019-05-13T01:13:04.591Z,103353.09
2019-05-13T01:14:06.773Z,103354.97
2019-05-13T01:15:09.352Z,103357.58
2019-05-13T01:16:13.901Z,103358.32
2019-05-13T01:17:15.791Z,103362.44
2019-05-13T01:18:18.010Z,103355.34
2019-05-13T01:19:20.848Z,103357.38
2019-05-13T01:20:23.537Z,103359.63
2019-05-13T01:21:26.245Z,103363.55
2019-05-13T01:22:28.441Z,103360.00
2019-05-13T01:23:31.051Z,103363.92
2019-05-13T01:24:33.937Z,103364.48
2019-05-13T01:25:36.737Z,103362.61
2019-05-13T01:26:38.954Z,103368.78
2019-05-13T01:27:43.984Z,103362.98
2019-05-13T01:28:45.417Z,103363.55
2019-05-13T01:29:47.989Z,103359.06
2019-05-13T01:30:50.207Z,103361.30
2019-05-13T01:31:53.778Z,103362.98
2019-05-13T01:32:56.181Z,103363.92
2019-05-13T01:33:58.785Z,103360.37
2019-05-13T01:35:00.995Z,103365.23
2019-05-13T01:36:05.281Z,103362.61
2019-05-13T01:37:07.453Z,103370.45
2019-05-13T01:38:10.028Z,103362.05
2019-05-13T01:39:13.934Z,103369.15
2019-05-13T01:40:16.650Z,103370.45
2019-05-13T01:41:18.887Z,103366.91
2019-05-13T01:42:21.463Z,103365.96
2019-05-13T01:43:24.461Z,103369.89
2019-05-13T01:44:27.382Z,103364.66
2019-05-13T01:45:29.587Z,103365.03
2019-05-13T01:46:34.521Z,103366.33
2019-05-13T01:47:36.003Z,103368.58
2019-05-13T01:48:38.594Z,103376.42
2019-05-13T01:49:40.796Z,103376.79
2019-05-13T01:50:44.490Z,103377.73
2019-05-13T01:51:46.994Z,103376.79
2019-05-13T01:52:49.570Z,103374.55
2019-05-13T01:53:53.436Z,103378.09
2019-05-13T01:54:56.178Z,103377.53
2019-05-13T01:55:58.379Z,103377.53
2019-05-13T01:57:00.967Z,103377.53
2019-05-13T01:58:04.345Z,103378.84
2019-05-13T01:59:07.159Z,103380.52
2019-05-13T02:00:09.425Z,103384.63
2019-05-13T02:01:13.850Z,103382.76
2019-05-13T02:02:15.858Z,103379.77
2019-05-13T02:03:18.447Z,103382.76
2019-05-13T02:04:20.653Z,103384.63
2019-05-13T02:05:24.267Z,103385.74
2019-05-13T02:06:26.466Z,103385.74
2019-05-13T02:07:29.046Z,103387.42
2019-05-13T02:08:33.453Z,103385.74
2019-05-13T02:09:35.495Z,103388.72
2019-05-13T02:10:57.155Z,103383.87
2019-05-13T02:11:59.742Z,103387.42
2019-05-13T02:13:04.047Z,103389.30
2019-05-13T02:14:06.228Z,103394.89
2019-05-13T02:15:08.615Z,103384.80
2019-05-13T02:16:11.228Z,103384.23
2019-05-13T02:17:14.627Z,103389.09
2019-05-13T02:18:17.324Z,103385.91
2019-05-13T02:19:19.536Z,103387.78
2019-05-13T02:20:24.669Z,103390.77
2019-05-13T02:21:25.983Z,103385.91
2019-05-13T02:22:28.563Z,103395.06
2019-05-13T02:23:30.779Z,103388.89
2019-05-13T02:24:34.194Z,103386.84
2019-05-13T02:25:36.667Z,103388.16
2019-05-13T02:26:39.244Z,103392.45
2019-05-13T02:27:43.698Z,103396.36
2019-05-13T02:28:45.686Z,103398.04
2019-05-13T02:29:47.902Z,103390.20
2019-05-13T02:30:50.512Z,103396.73
2019-05-13T02:31:56.116Z,103394.45
2019-05-13T02:32:56.980Z,103393.15
2019-05-13T02:34:02.212Z,103397.44
2019-05-13T02:35:03.450Z,103399.68
2019-05-13T02:36:05.675Z,103405.88
2019-05-13T02:37:08.264Z,103399.34
2019-05-13T02:38:19.886Z,103397.81
2019-05-13T02:39:14.697Z,103397.44
2019-05-13T02:40:18.487Z,103397.81
2019-05-13T02:41:22.739Z,103403.60
2019-05-13T02:42:24.926Z,103402.66
2019-05-13T02:43:27.508Z,103404.58
2019-05-13T02:44:32.962Z,103399.11
2019-05-13T02:45:33.953Z,103399.68
2019-05-13T02:46:37.207Z,103405.65
2019-05-13T02:47:39.788Z,103397.81
2019-05-13T02:48:42.439Z,103402.66
2019-05-13T02:49:45.182Z,103403.97
2019-05-13T02:50:47.381Z,103402.30
2019-05-13T02:51:49.986Z,103402.66
2019-05-13T02:52:53.107Z,103408.27
2019-05-13T02:53:55.888Z,103410.51
2019-05-13T02:54:58.105Z,103413.12
2019-05-13T02:56:03.060Z,103409.94
2019-05-13T02:57:04.601Z,103414.80
2019-05-13T02:58:07.230Z,103411.24
2019-05-13T02:59:12.997Z,103417.78
2019-05-13T03:00:13.679Z,103419.45
2019-05-13T03:01:15.886Z,103417.78
2019-05-13T03:02:18.508Z,103421.33
2019-05-13T03:03:23.124Z,103420.20
2019-05-13T03:04:24.964Z,103411.98
2019-05-13T03:05:27.169Z,103422.64
2019-05-13T03:06:33.125Z,103419.45
2019-05-13T03:07:33.649Z,103421.70
2019-05-13T03:08:46.167Z,103423.75
2019-05-13T03:09:42.242Z,103418.88
2019-05-13T03:10:44.305Z,103417.21
2019-05-13T03:11:46.507Z,103423.17
2019-05-13T03:12:49.097Z,103420.77
2019-05-13T03:13:52.873Z,103419.83
2019-05-13T03:14:55.568Z,103418.14
2019-05-13T03:16:07.870Z,103417.58
2019-05-13T03:17:16.479Z,103424.48
2019-05-13T03:18:22.299Z,103420.56
2019-05-13T03:19:23.276Z,103429.70
2019-05-13T03:20:25.497Z,103428.41
2019-05-13T03:21:28.072Z,103423.55
2019-05-13T03:22:32.632Z,103425.79
2019-05-13T03:23:34.558Z,103419.63
2019-05-13T03:24:36.764Z,103420.93
2019-05-13T03:25:42.694Z,103422.23
2019-05-13T03:26:43.217Z,103419.63
2019-05-13T03:27:45.799Z,103424.28
2019-05-13T03:28:48.020Z,103419.99
2019-05-13T03:29:53.376Z,103417.38
2019-05-13T03:30:56.506Z,103424.28
2019-05-13T03:31:58.834Z,103414.20
2019-05-13T03:33:08.997Z,103426.89
2019-05-13T03:34:07.131Z,103417.38
2019-05-13T03:35:09.214Z,103421.67
2019-05-13T03:36:16.190Z,103416.81
2019-05-13T03:37:16.552Z,103418.69
2019-05-13T03:38:22.352Z,103426.53
2019-05-13T03:39:23.309Z,103419.05
2019-05-13T03:40:25.897Z,103433.06
2019-05-13T03:41:28.281Z,103425.59
2019-05-13T03:42:33.418Z,103425.59
2019-05-13T03:43:34.722Z,103434.73
2019-05-13T03:44:37.323Z,103436.41
2019-05-13T03:45:39.540Z,103438.28
2019-05-13T03:46:42.714Z,103432.12
2019-05-13T03:47:45.013Z,103439.39
2019-05-13T03:48:47.591Z,103442.95
2019-05-13T03:49:53.168Z,103437.72
2019-05-13T03:50:54.074Z,103442.58
2019-05-13T03:51:56.280Z,103445.56
2019-05-13T03:53:02.671Z,103450.78
2019-05-13T03:54:03.299Z,103447.60
2019-05-13T03:55:06.061Z,103447.97
2019-05-13T03:56:08.264Z,103450.22
2019-05-13T03:57:12.567Z,103444.25
2019-05-13T03:58:14.702Z,103448.91
2019-05-13T03:59:17.298Z,103445.36
2019-05-13T04:00:19.507Z,103448.91
2019-05-13T04:01:22.537Z,103453.20
2019-05-13T04:02:24.788Z,103455.81
2019-05-13T04:03:27.380Z,103451.52
2019-05-13T04:04:32.351Z,103454.14
2019-05-13T04:05:33.851Z,103449.28
2019-05-13T04:06:36.072Z,103457.69
2019-05-13T04:07:38.653Z,103453.20
2019-05-13T04:08:43.493Z,103456.02
2019-05-13T04:09:45.106Z,103450.59
2019-05-13T04:10:47.340Z,103449.28
2019-05-13T04:11:52.567Z,103448.70
2019-05-13T04:12:53.781Z,103450.02
2019-05-13T04:13:56.355Z,103445.36
2019-05-13T04:14:58.570Z,103446.66
2019-05-13T04:16:04.041Z,103444.05
2019-05-13T04:17:05.020Z,103449.28
2019-05-13T04:18:07.597Z,103453.20
2019-05-13T04:19:12.326Z,103454.14
2019-05-13T04:20:14.039Z,103457.69
2019-05-13T04:21:16.239Z,103454.88
2019-05-13T04:22:18.907Z,103456.75
2019-05-13T04:23:23.202Z,103464.95
2019-05-13T04:24:25.402Z,103456.18
2019-05-13T04:25:27.621Z,103464.95
2019-05-13T04:26:32.333Z,103459.73
2019-05-13T04:27:34.046Z,103459.73
2019-05-13T04:28:36.641Z,103464.95
2019-05-13T04:29:38.843Z,103466.27
2019-05-13T04:30:43.595Z,103464.02
2019-05-13T04:31:45.302Z,103467.00
2019-05-13T04:32:47.878Z,103466.27
2019-05-13T04:33:52.856Z,103467.20
2019-05-13T04:34:54.307Z,103471.13
2019-05-13T04:35:56.528Z,103465.53
2019-05-13T04:37:02.129Z,103473.73
2019-05-13T04:38:04.127Z,103467.57
2019-05-13T04:39:07.181Z,103467.20
2019-05-13T04:40:12.611Z,103467.94
2019-05-13T04:41:13.609Z,103470.75
2019-05-13T04:42:15.817Z,103473.17
2019-05-13T04:43:18.385Z,103478.97
2019-05-13T04:44:23.662Z,103476.72
2019-05-13T04:45:24.865Z,103475.41
2019-05-13T04:46:27.084Z,103475.98
2019-05-13T04:47:33.034Z,103478.97
2019-05-13T04:48:34.176Z,103479.91
2019-05-13T04:49:36.905Z,103481.21
2019-05-13T04:50:39.125Z,103479.53
2019-05-13T04:51:42.225Z,103476.55
2019-05-13T04:52:44.486Z,103473.00
2019-05-13T04:53:47.067Z,103476.92
2019-05-13T04:54:52.560Z,103479.53
2019-05-13T04:55:53.535Z,103474.67
2019-05-13T04:56:55.745Z,103475.25
2019-05-13T04:57:58.330Z,103473.37
2019-05-13T04:59:02.987Z,103475.25
2019-05-13T05:00:04.875Z,103475.25
2019-05-13T05:01:09.075Z,103466.47
2019-05-13T05:02:13.272Z,103475.81
2019-05-13T05:03:22.802Z,103473.20
2019-05-13T05:04:27.341Z,103477.33
2019-05-13T05:05:23.225Z,103483.29
2019-05-13T05:06:25.777Z,103476.72
2019-05-13T05:07:27.978Z,103477.55
2019-05-13T05:08:32.893Z,103470.28
2019-05-13T05:09:40.321Z,103476.11
2019-05-13T05:10:39.069Z,103476.89
2019-05-13T05:11:42.745Z,103477.66
2019-05-13T05:12:45.325Z,103475.25
2019-05-13T05:13:47.551Z,103478.06
2019-05-13T05:14:52.263Z,103477.70
2019-05-13T05:15:54.036Z,103476.02
2019-05-13T05:16:56.654Z,103469.85
2019-05-13T05:17:58.844Z,103474.71
2019-05-13T05:19:02.259Z,103472.27
2019-05-13T05:20:04.624Z,103473.03
2019-05-13T05:21:07.236Z,103473.41
2019-05-13T05:22:13.135Z,103467.97
2019-05-13T05:23:13.691Z,103475.25
2019-05-13T05:24:15.905Z,103470.59
2019-05-13T05:25:18.486Z,103473.57
2019-05-13T05:26:22.103Z,103470.59
2019-05-13T05:27:24.750Z,103477.13
2019-05-13T05:28:27.265Z,103476.75
2019-05-13T05:29:31.958Z,103487.41
2019-05-13T05:30:33.686Z,103478.27
2019-05-13T05:31:37.022Z,103481.81
2019-05-13T05:32:39.230Z,103489.29
2019-05-13T05:33:41.838Z,103482.38
2019-05-13T05:34:44.031Z,103484.30
2019-05-13T05:35:46.625Z,103482.99
2019-05-13T05:36:48.875Z,103483.56
2019-05-13T05:37:52.224Z,103486.55
2019-05-13T05:38:54.584Z,103479.27
2019-05-13T05:39:57.144Z,103484.50
2019-05-13T05:41:01.702Z,103482.82
2019-05-13T05:42:04.044Z,103483.77
2019-05-13T05:43:06.253Z,103483.39
2019-05-13T05:44:09.295Z,103483.77
2019-05-13T05:45:11.642Z,103482.82
2019-05-13T05:46:14.388Z,103486.75
2019-05-13T05:47:16.953Z,103486.58
2019-05-13T05:48:22.044Z,103490.13
2019-05-13T05:49:23.533Z,103489.19
2019-05-13T05:50:26.135Z,103487.14
2019-05-13T05:51:28.341Z,103484.16
2019-05-13T05:52:31.637Z,103481.55
2019-05-13T05:53:33.969Z,103483.23
2019-05-13T05:54:36.541Z,103488.08
2019-05-13T05:55:41.073Z,103488.08
2019-05-13T05:56:42.970Z,103488.66
2019-05-13T05:57:45.191Z,103486.41
2019-05-13T05:58:47.805Z,103485.67
2019-05-13T05:59:51.736Z,103486.41
2019-05-13T06:00:54.408Z,103489.22
2019-05-13T06:01:56.636Z,103493.14
2019-05-13T06:03:02.317Z,103490.90
2019-05-13T06:04:03.104Z,103491.09
2019-05-13T06:05:05.981Z,103490.16
2019-05-13T06:06:08.227Z,103492.41
2019-05-13T06:07:11.569Z,103489.80
2019-05-13T06:08:13.977Z,103492.41
2019-05-13T06:09:16.708Z,103498.58
2019-05-13T06:10:18.901Z,103502.13
2019-05-13T06:11:22.306Z,103502.13
2019-05-13T06:12:24.590Z,103495.59
2019-05-13T06:13:28.371Z,103509.59
2019-05-13T06:14:32.733Z,103499.14
2019-05-13T06:15:34.913Z,103499.14
2019-05-13T06:16:37.122Z,103496.16
2019-05-13T06:17:42.636Z,103496.53
2019-05-13T06:18:44.867Z,103500.08
2019-05-13T06:19:47.456Z,103501.59
2019-05-13T06:20:51.184Z,103510.73
2019-05-13T06:21:53.956Z,103505.88
2019-05-13T06:22:56.333Z,103508.13
2019-05-13T06:23:58.913Z,103506.48
2019-05-13T06:25:01.504Z,103500.28
2019-05-13T06:26:04.200Z,103499.95
2019-05-13T06:27:06.402Z,103507.80
2019-05-13T06:28:08.985Z,103508.36
2019-05-13T06:29:11.741Z,103506.12
2019-05-13T06:30:14.510Z,103510.04
2019-05-13T06:31:16.703Z,103509.30
2019-05-13T06:32:25.313Z,103513.59
2019-05-13T06:33:23.173Z,103510.98
2019-05-13T06:34:25.750Z,103509.30
2019-05-13T06:35:27.935Z,103507.05
2019-05-13T06:36:31.675Z,103514.53
2019-05-13T06:37:34.124Z,103512.48
2019-05-13T06:38:37.006Z,103516.03
2019-05-13T06:39:39.205Z,103514.16
2019-05-13T06:40:42.445Z,103516.77
2019-05-13T06:41:44.883Z,103522.20
2019-05-13T06:42:47.571Z,103522.58
2019-05-13T06:43:52.240Z,103523.14
2019-05-13T06:44:54.011Z,103521.27
2019-05-13T06:45:56.315Z,103518.28
2019-05-13T06:46:58.895Z,103523.71
2019-05-13T06:48:02.443Z,103520.53
2019-05-13T06:49:05.291Z,103522.20
2019-05-13T06:50:07.484Z,103525.77
2019-05-13T06:51:11.657Z,103528.95
2019-05-13T06:52:13.988Z,103526.33
2019-05-13T06:53:16.753Z,103526.33
2019-05-13T06:54:18.952Z,103531.19
2019-05-13T06:55:21.531Z,103527.27
2019-05-13T06:56:23.740Z,103523.71
2019-05-13T06:57:26.529Z,103518.69
2019-05-13T06:58:28.766Z,103517.75
2019-05-13T06:59:31.812Z,103523.55
2019-05-13T07:00:35.077Z,103520.36
2019-05-13T07:01:37.724Z,103525.22
2019-05-13T07:02:42.543Z,103526.53
2019-05-13T07:03:44.200Z,103521.50
2019-05-13T07:04:46.616Z,103522.81
2019-05-13T07:05:49.198Z,103525.80
2019-05-13T07:07:01.082Z,103526.73
2019-05-13T07:07:55.956Z,103526.73
2019-05-13T07:08:58.186Z,103529.34
2019-05-13T07:10:02.497Z,103530.66
2019-05-13T07:11:17.670Z,103532.56
2019-05-13T07:12:11.205Z,103532.94
2019-05-13T07:13:12.693Z,103531.96
2019-05-13T07:14:15.471Z,103532.94
2019-05-13T07:15:17.693Z,103537.43
2019-05-13T07:16:22.377Z,103538.16
2019-05-13T07:17:24.116Z,103545.27
2019-05-13T07:18:26.875Z,103540.05
2019-05-13T07:19:29.097Z,103543.96
2019-05-13T07:20:32.324Z,103543.59
2019-05-13T07:21:34.816Z,103538.73
2019-05-13T07:22:42.068Z,103538.73
2019-05-13T07:23:44.483Z,103543.03
2019-05-13T07:24:47.430Z,103544.91
2019-05-13T07:25:52.249Z,103542.29
2019-05-13T07:26:53.836Z,103544.91
2019-05-13T07:27:56.127Z,103538.94
2019-05-13T07:28:59.168Z,103537.43
2019-05-13T07:30:02.336Z,103546.78
2019-05-13T07:31:05.121Z,103541.92
2019-05-13T07:32:07.335Z,103551.87
2019-05-13T07:33:12.293Z,103548.89
2019-05-13T07:34:13.766Z,103551.51
2019-05-13T07:35:16.335Z,103546.28
2019-05-13T07:36:18.519Z,103552.81
2019-05-13T07:37:21.872Z,103547.59
2019-05-13T07:38:24.402Z,103547.59
2019-05-13T07:39:26.963Z,103544.73
2019-05-13T07:40:29.191Z,103538.44
2019-05-13T07:41:38.958Z,103543.30
2019-05-13T07:42:35.684Z,103544.23
2019-05-13T07:43:38.322Z,103543.87
2019-05-13T07:44:41.692Z,103548.16
2019-05-13T07:45:44.478Z,103547.79
2019-05-13T07:46:46.691Z,103545.17
2019-05-13T07:47:51.421Z,103550.41
2019-05-13T07:48:53.222Z,103549.09
2019-05-13T07:49:55.821Z,103546.11
2019-05-13T07:51:00.441Z,103547.79
2019-05-13T07:52:02.430Z,103540.88
2019-05-13T07:53:04.682Z,103540.14
2019-05-13T07:54:07.259Z,103545.37
2019-05-13T07:55:11.897Z,103538.84
2019-05-13T07:56:13.714Z,103541.09
2019-05-13T07:57:15.930Z,103540.14
2019-05-13T07:58:18.620Z,103541.66
2019-05-13T07:59:21.219Z,103536.79
2019-05-13T08:00:23.885Z,103541.28
2019-05-13T08:01:26.094Z,103538.67
2019-05-13T08:02:28.675Z,103546.14
2019-05-13T08:03:31.707Z,103536.99
2019-05-13T08:04:34.494Z,103540.91
2019-05-13T08:05:36.718Z,103544.84
2019-05-13T08:06:41.497Z,103543.16
2019-05-13T08:07:43.159Z,103539.61
2019-05-13T08:08:45.768Z,103541.48
2019-05-13T08:09:47.979Z,103545.41
2019-05-13T08:10:51.949Z,103541.48
2019-05-13T08:12:05.403Z,103540.17
2019-05-13T08:12:58.602Z,103537.20
2019-05-13T08:14:01.740Z,103534.58
2019-05-13T08:15:04.634Z,103534.95
2019-05-13T08:16:06.849Z,103536.25
2019-05-13T08:17:11.502Z,103537.20
2019-05-13T08:18:13.279Z,103537.39
2019-05-13T08:19:15.912Z,103536.83
2019-05-13T08:20:18.132Z,103537.39
2019-05-13T08:21:21.535Z,103536.09
2019-05-13T08:22:23.806Z,103537.97
2019-05-13T08:23:26.379Z,103535.72
2019-05-13T08:24:28.621Z,103531.22
2019-05-13T08:25:31.809Z,103523.95
2019-05-13T08:26:38.167Z,103528.44
2019-05-13T08:27:38.219Z,103529.75
2019-05-13T08:28:54.002Z,103529.75
2019-05-13T08:29:44.663Z,103528.07
2019-05-13T08:30:46.891Z,103530.12
2019-05-13T08:31:51.653Z,103528.07
2019-05-13T08:32:53.338Z,103529.38
2019-05-13T08:33:55.909Z,103528.07
2019-05-13T08:35:01.252Z,103527.56
2019-05-13T08:36:02.298Z,103530.31
2019-05-13T08:37:05.616Z,103529.98
2019-05-13T08:38:08.201Z,103525.89
2019-05-13T08:39:12.707Z,103528.88
2019-05-13T08:40:14.885Z,103527.03
2019-05-13T08:41:19.404Z,103525.18
2019-05-13T08:42:23.483Z,103526.49
2019-05-13T08:43:25.237Z,103527.06
2019-05-13T08:44:27.819Z,103525.75
2019-05-13T08:45:31.526Z,103524.08
2019-05-13T08:46:34.321Z,103525.02
2019-05-13T08:47:36.553Z,103525.75
2019-05-13T08:48:39.263Z,103525.55
2019-05-13T08:49:41.649Z,103523.88
2019-05-13T08:50:44.356Z,103520.35
2019-05-13T08:51:46.568Z,103525.38
2019-05-13T08:52:51.117Z,103527.63
2019-05-13T08:53:53.045Z,103522.77
2019-05-13T08:54:55.633Z,103518.84
2019-05-13T08:55:57.847Z,103519.21
2019-05-13T08:57:02.474Z,103520.35
2019-05-13T08:58:04.328Z,103515.86
2019-05-13T08:59:06.910Z,103514.75
2019-05-13T09:00:09.148Z,103521.09
2019-05-13T09:01:12.396Z,103512.30
2019-05-13T09:02:14.838Z,103519.38
2019-05-13T09:03:17.485Z,103518.61
2019-05-13T09:04:22.089Z,103521.77
2019-05-13T09:05:23.980Z,103517.61
2019-05-13T09:06:26.169Z,103518.72
2019-05-13T09:07:28.762Z,103524.69
2019-05-13T09:08:31.941Z,103514.97
2019-05-13T09:09:34.663Z,103517.95
2019-05-13T09:10:36.884Z,103520.56
2019-05-13T09:11:41.952Z,103520.93
2019-05-13T09:12:43.542Z,103517.75
2019-05-13T09:13:46.163Z,103527.27
2019-05-13T09:14:48.366Z,103512.52
2019-05-13T09:15:51.641Z,103525.96
2019-05-13T09:16:54.046Z,103515.88
2019-05-13T09:17:56.619Z,103519.80
2019-05-13T09:18:58.857Z,103523.34
2019-05-13T09:20:02.799Z,103515.30
2019-05-13T09:21:05.229Z,103514.36
2019-05-13T09:22:07.823Z,103517.55
2019-05-13T09:23:11.392Z,103515.30
2019-05-13T09:24:25.333Z,103519.23
2019-05-13T09:25:18.097Z,103518.28
2019-05-13T09:26:22.724Z,103522.21
2019-05-13T09:27:24.999Z,103517.91
2019-05-13T09:28:27.571Z,103521.84
2019-05-13T09:29:32.140Z,103518.28
2019-05-13T09:30:33.998Z,103520.90
2019-05-13T09:31:36.218Z,103514.36
2019-05-13T09:32:38.778Z,103515.67
2019-05-13T09:33:41.816Z,103518.28
2019-05-13T09:34:44.607Z,103516.98
2019-05-13T09:35:50.009Z,103515.67
2019-05-13T09:36:51.952Z,103517.34
2019-05-13T09:37:54.373Z,103512.12
2019-05-13T09:38:56.950Z,103518.66
2019-05-13T09:39:59.218Z,103511.75
2019-05-13T09:41:02.117Z,103519.97
2019-05-13T09:42:04.607Z,103517.34
2019-05-13T09:43:07.198Z,103519.97
2019-05-13T09:44:09.382Z,103517.34
2019-05-13T09:45:12.429Z,103523.89
2019-05-13T09:46:14.914Z,103522.95
2019-05-13T09:47:17.491Z,103517.72
2019-05-13T09:48:22.230Z,103524.25
2019-05-13T09:49:23.973Z,103526.50
2019-05-13T09:50:31.639Z,103526.13
2019-05-13T09:51:32.422Z,103535.66
2019-05-13T09:52:34.236Z,103528.55
2019-05-13T09:53:36.816Z,103522.21
2019-05-13T09:54:39.011Z,103523.52
2019-05-13T09:55:41.676Z,103526.50
2019-05-13T09:56:43.845Z,103520.33
2019-05-13T09:57:46.427Z,103524.82
2019-05-13T09:58:51.185Z,103513.42
2019-05-13T09:59:52.878Z,103527.44
2019-05-13T10:00:55.142Z,103526.50
2019-05-13T10:01:57.717Z,103519.02
2019-05-13T10:03:02.044Z,103519.97
2019-05-13T10:04:04.153Z,103520.90
2019-05-13T10:05:06.347Z,103524.82
2019-05-13T10:06:08.950Z,103524.08
2019-05-13T10:07:12.431Z,103523.52
2019-05-13T10:08:15.189Z,103519.97
2019-05-13T10:09:17.398Z,103522.21
2019-05-13T10:10:22.139Z,103516.98
2019-05-13T10:11:23.874Z,103517.72
2019-05-13T10:12:26.516Z,103519.59
2019-05-13T10:13:28.733Z,103514.73
2019-05-13T10:14:32.812Z,103518.28
2019-05-13T10:15:35.360Z,103514.56
2019-05-13T10:16:37.976Z,103517.18
2019-05-13T10:17:42.745Z,103511.01
2019-05-13T10:18:44.490Z,103511.95
2019-05-13T10:19:46.688Z,103513.05
2019-05-13T10:20:49.280Z,103512.48
2019-05-13T10:21:52.459Z,103516.41
2019-05-13T10:22:57.082Z,103518.45
2019-05-13T10:23:59.295Z,103521.80
2019-05-13T10:25:02.715Z,103517.08
2019-05-13T10:26:05.038Z,103520.88
2019-05-13T10:27:07.683Z,103527.04
2019-05-13T10:28:09.879Z,103522.75
2019-05-13T10:29:12.488Z,103527.23
2019-05-13T10:30:14.662Z,103515.10
2019-05-13T10:31:17.269Z,103513.80
2019-05-13T10:32:21.760Z,103514.36
2019-05-13T10:33:23.760Z,103516.04
2019-05-13T10:34:25.979Z,103516.98
2019-05-13T10:35:28.876Z,103512.48
2019-05-13T10:36:32.731Z,103518.66
2019-05-13T10:37:35.363Z,103512.31
2019-05-13T10:38:37.577Z,103514.94
2019-05-13T10:39:40.168Z,103513.25
2019-05-13T10:40:43.239Z,103507.09
2019-05-13T10:41:46.093Z,103511.95
2019-05-13T10:42:48.337Z,103511.21
2019-05-13T10:43:52.081Z,103508.96
2019-05-13T10:44:54.449Z,103507.45
2019-05-13T10:45:57.035Z,103513.99
2019-05-13T10:46:59.433Z,103510.44
2019-05-13T10:48:02.993Z,103514.36
2019-05-13T10:49:05.242Z,103517.18
2019-05-13T10:50:07.825Z,103516.27
2019-05-13T10:51:12.879Z,103515.48
2019-05-13T10:52:14.252Z,103506.42
2019-05-13T10:53:16.483Z,103508.50
2019-05-13T10:54:21.505Z,103508.70
2019-05-13T10:55:22.940Z,103505.91
2019-05-13T10:56:25.507Z,103516.44
2019-05-13T10:57:27.723Z,103512.14
2019-05-13T10:58:30.347Z,103509.92
2019-05-13T10:59:32.857Z,103511.59
2019-05-13T11:00:35.451Z,103503.95
2019-05-13T11:01:37.665Z,103513.10
2019-05-13T11:02:42.302Z,103508.44
2019-05-13T11:03:44.140Z,103499.65
2019-05-13T11:04:46.715Z,103500.96
2019-05-13T11:05:52.264Z,103506.37
2019-05-13T11:06:53.753Z,103496.44
2019-05-13T11:07:55.975Z,103503.36
2019-05-13T11:08:58.585Z,103506.65
2019-05-13T11:10:02.337Z,103501.59
2019-05-13T11:11:05.011Z,103509.98
2019-05-13T11:12:07.968Z,103509.41
2019-05-13T11:13:11.746Z,103507.91
2019-05-13T11:14:15.753Z,103501.16
2019-05-13T11:15:18.465Z,103501.16
2019-05-13T11:16:22.557Z,103509.02
2019-05-13T11:17:30.794Z,103509.34
2019-05-13T11:18:28.755Z,103505.42
2019-05-13T11:19:36.145Z,103500.80
2019-05-13T11:20:35.210Z,103502.80
2019-05-13T11:21:37.781Z,103493.31
2019-05-13T11:22:40.007Z,103491.41
2019-05-13T11:23:42.884Z,103492.14
2019-05-13T11:24:45.103Z,103491.77
2019-05-13T11:25:47.683Z,103484.86
2019-05-13T11:26:52.255Z,103484.86
2019-05-13T11:27:58.385Z,103486.55
2019-05-13T11:28:57.972Z,103484.09
2019-05-13T11:30:05.401Z,103482.42
2019-05-13T11:31:04.445Z,103485.41
2019-05-13T11:32:07.035Z,103485.97
2019-05-13T11:33:10.175Z,103485.61
2019-05-13T11:34:13.041Z,103484.66
2019-05-13T11:35:15.486Z,103483.92
2019-05-13T11:36:19.161Z,103490.47
2019-05-13T11:37:23.134Z,103476.08
2019-05-13T11:38:26.089Z,103474.40
2019-05-13T11:39:28.337Z,103485.23
2019-05-13T11:40:31.827Z,103476.63
2019-05-13T11:41:34.169Z,103483.73
2019-05-13T11:42:36.744Z,103484.66
2019-05-13T11:43:41.200Z,103481.48
2019-05-13T11:44:43.286Z,103486.71
2019-05-13T11:45:46.487Z,103481.48
2019-05-13T11:46:49.405Z,103475.31
2019-05-13T11:47:52.268Z,103478.87
2019-05-13T11:48:54.931Z,103477.36
2019-05-13T11:49:57.224Z,103474.37
2019-05-13T11:50:59.829Z,103471.76
2019-05-13T11:52:02.822Z,103481.85
2019-05-13T11:53:28.065Z,103480.17
2019-05-13T11:54:13.539Z,103472.33
2019-05-13T11:55:13.874Z,103471.95
2019-05-13T11:56:16.228Z,103477.56
2019-05-13T11:57:18.805Z,103477.92
2019-05-13T11:58:21.315Z,103474.94